Time;durP1;ratioP1;P1;durP2;ratioP2;P2;SDS_P1;SDS_P2;PMS_P1;PMS_P2;Temp;Humidity;BMP_temperature;BMP_pressure;BME280_temperature;BME280_humidity;BME280_pressure;Samples;Min_cycle;Max_cycle;Signal;HPM_P1;HPM_P2
2021/06/06 00:01:24;;;;;;;17.05;15.32;;;;;;;11.85;74.03;99203.98;2281541;78;20914;-82
2021/06/06 00:04:25;;;;;;;19.30;16.25;;;;;;;11.80;73.98;99201.74;2281106;78;20938;-82
2021/06/06 00:07:26;;;;;;;17.57;15.40;;;;;;;11.78;74.09;99201.72;2281306;78;21014;-82
2021/06/06 00:10:27;;;;;;;25.37;18.00;;;;;;;11.80;74.20;99198.70;2281389;78;20919;-82
2021/06/06 00:13:28;;;;;;;27.40;16.50;;;;;;;11.84;74.47;99202.66;2281489;78;20891;-83
2021/06/06 00:16:29;;;;;;;23.92;16.35;;;;;;;11.82;74.29;99205.26;2281284;78;20950;-84
2021/06/06 00:19:30;;;;;;;22.82;16.62;;;;;;;11.79;74.40;99193.45;2281424;78;21048;-81
2021/06/06 00:22:31;;;;;;;21.10;17.50;;;;;;;11.86;74.48;99204.86;2281907;78;20938;-82
2021/06/06 00:25:32;;;;;;;20.70;17.37;;;;;;;11.82;74.11;99203.95;2281920;78;20919;-82
2021/06/06 00:28:33;;;;;;;20.88;16.87;;;;;;;11.83;74.23;99212.67;2281735;78;20977;-82
2021/06/06 00:31:34;;;;;;;18.60;16.70;;;;;;;11.81;74.06;99206.12;2281891;78;20938;-81
2021/06/06 00:34:34;;;;;;;21.68;18.40;;;;;;;11.75;73.84;99204.70;2281708;78;20965;-81
2021/06/06 00:37:36;;;;;;;23.00;18.60;;;;;;;11.67;74.02;99209.83;2281708;78;20997;-81
2021/06/06 00:40:37;;;;;;;19.95;17.55;;;;;;;11.60;74.14;99205.38;2281822;78;20950;-81
2021/06/06 00:43:38;;;;;;;24.90;18.37;;;;;;;11.55;74.10;99207.05;2281913;78;21029;-82
2021/06/06 00:46:39;;;;;;;21.35;16.73;;;;;;;11.52;74.18;99204.82;2281778;78;20972;-81
2021/06/06 00:49:40;;;;;;;23.60;18.40;;;;;;;11.47;74.27;99208.25;2271372;77;21027;-82
2021/06/06 00:52:41;;;;;;;18.67;16.80;;;;;;;11.50;74.52;99204.80;2249707;79;20912;-81
2021/06/06 00:55:42;;;;;;;19.57;16.37;;;;;;;11.55;74.51;99204.44;2249095;79;20999;-81
2021/06/06 00:58:43;;;;;;;18.53;16.00;;;;;;;11.55;74.30;99204.44;2249462;79;21011;-81
2021/06/06 01:01:44;;;;;;;20.90;16.67;;;;;;;11.51;74.03;99208.30;2249688;79;20920;-81
2021/06/06 01:04:45;;;;;;;17.95;16.02;;;;;;;11.46;73.96;99207.80;2249463;79;20937;-81
2021/06/06 01:07:46;;;;;;;18.62;16.40;;;;;;;11.46;74.13;99205.19;2249450;79;20925;-80
2021/06/06 01:10:47;;;;;;;21.45;16.10;;;;;;;11.47;73.97;99206.94;2249733;79;21024;-80
2021/06/06 01:13:48;;;;;;;23.87;16.90;;;;;;;11.42;73.82;99209.92;2249718;79;20931;-80
2021/06/06 01:16:49;;;;;;;28.38;17.35;;;;;;;11.40;73.94;99204.22;2249496;79;20948;-81
2021/06/06 01:19:50;;;;;;;76.17;20.48;;;;;;;11.40;74.24;99205.09;2249357;79;21059;-81
2021/06/06 01:22:51;;;;;;;70.42;19.52;;;;;;;11.40;74.58;99198.56;2249648;79;20943;-80
2021/06/06 01:25:52;;;;;;;58.63;18.87;;;;;;;11.39;74.72;99205.95;2249416;79;20996;-81
2021/06/06 01:28:53;;;;;;;57.50;16.90;;;;;;;11.34;74.70;99208.94;2249529;79;20967;-81
2021/06/06 01:31:54;;;;;;;63.85;15.80;;;;;;;11.28;74.64;99202.73;2250031;79;20980;-81
2021/06/06 01:34:55;;;;;;;24.80;15.53;;;;;;;11.19;74.56;99199.53;2249426;79;21296;-81
2021/06/06 01:37:59;;;;;;;18.07;15.72;;;;;;;11.13;74.51;99203.36;2249291;79;20966;-81
2021/06/06 01:41:00;;;;;;;16.73;15.03;;;;;;;11.07;74.49;99204.14;2249910;79;20960;-81
2021/06/06 01:44:01;;;;;;;15.28;12.23;;;;;;;11.04;74.69;99204.52;2249637;79;21027;-82
2021/06/06 01:47:02;;;;;;;13.98;12.68;;;;;;;11.01;74.33;99200.55;2249712;79;21343;-81
2021/06/06 01:50:03;;;;;;;25.32;12.37;;;;;;;10.96;74.24;99200.48;2260705;78;21078;-81
2021/06/06 01:53:05;;;;;;;14.45;12.80;;;;;;;10.95;74.49;99201.34;2281781;78;21360;-82
2021/06/06 01:56:06;;;;;;;13.93;12.70;;;;;;;10.93;74.41;99200.86;2281789;78;21041;-82
2021/06/06 01:59:07;;;;;;;12.75;11.65;;;;;;;10.90;74.40;99204.73;2281751;78;21334;-81
2021/06/06 02:02:08;;;;;;;12.63;11.43;;;;;;;10.90;74.57;99206.03;2281982;78;21346;-81
2021/06/06 02:05:09;;;;;;;12.20;11.10;;;;;;;10.92;74.61;99210.43;2281762;78;21291;-82
2021/06/06 02:08:10;;;;;;;14.30;11.60;;;;;;;10.98;74.51;99213.14;2281703;78;20946;-82
2021/06/06 02:11:11;;;;;;;29.07;12.85;;;;;;;10.99;74.31;99212.71;2281512;78;21421;-81
2021/06/06 02:14:13;;;;;;;24.67;12.10;;;;;;;10.92;74.14;99215.66;2281569;78;20990;-81
2021/06/06 02:17:14;;;;;;;12.50;11.30;;;;;;;10.83;74.03;99211.16;2281442;78;21361;-81
2021/06/06 02:20:15;;;;;;;13.38;12.18;;;;;;;10.74;73.94;99211.00;2281480;78;21434;-80
2021/06/06 02:23:16;;;;;;;14.67;13.27;;;;;;;10.73;74.13;99214.47;2281423;78;20985;-79
2021/06/06 02:26:17;;;;;;;14.43;12.77;;;;;;;10.72;74.32;99211.41;2281722;78;20984;-79
2021/06/06 02:29:18;;;;;;;15.20;13.67;;;;;;;10.74;74.33;99212.31;2281874;78;20942;-81
2021/06/06 02:32:19;;;;;;;15.97;13.50;;;;;;;10.69;74.20;99219.19;2281856;78;20954;-81
2021/06/06 02:35:21;;;;;;;14.17;12.80;;;;;;;10.67;74.23;99220.02;2281019;78;20997;-80
2021/06/06 02:38:22;;;;;;;14.38;12.88;;;;;;;10.64;74.20;99218.23;2281323;78;21009;-81
2021/06/06 02:41:23;;;;;;;14.77;12.90;;;;;;;10.62;74.29;99217.33;2281667;78;20906;-81
2021/06/06 02:44:24;;;;;;;15.33;13.77;;;;;;;10.62;74.15;99218.63;2281630;78;20985;-81
2021/06/06 02:47:25;;;;;;;14.10;12.80;;;;;;;10.57;73.97;99212.45;2281535;78;20930;-80
2021/06/06 02:50:26;;;;;;;14.63;13.23;;;;;;;10.58;74.12;99214.63;2281218;78;21101;-81
2021/06/06 02:53:26;;;;;;;14.20;12.83;;;;;;;10.58;74.05;99218.13;2281532;78;20966;-80
2021/06/06 02:56:27;;;;;;;14.10;12.80;;;;;;;10.62;74.25;99216.45;2281520;78;21017;-80
2021/06/06 02:59:29;;;;;;;15.43;11.97;;;;;;;10.64;74.32;99215.62;2281790;78;20981;-80
2021/06/06 03:02:30;;;;;;;13.47;12.27;;;;;;;10.69;74.27;99207.86;2281641;78;20990;-80
2021/06/06 03:05:30;;;;;;;12.73;10.97;;;;;;;10.70;73.96;99211.80;2281602;78;20918;-80
2021/06/06 03:08:31;;;;;;;12.80;11.65;;;;;;;10.75;73.79;99215.37;2281697;78;20990;-80
2021/06/06 03:11:32;;;;;;;13.65;12.45;;;;;;;10.82;73.78;99223.77;2281581;78;20973;-80
2021/06/06 03:14:34;;;;;;;13.78;12.58;;;;;;;10.94;73.83;99224.39;2281545;78;21454;-80
2021/06/06 03:17:34;;;;;;;14.03;12.50;;;;;;;10.98;73.52;99226.20;2281401;78;20941;-81
2021/06/06 03:20:35;;;;;;;13.32;12.13;;;;;;;10.96;73.26;99227.03;2281385;78;21012;-80
2021/06/06 03:23:36;;;;;;;13.78;12.37;;;;;;;11.03;73.47;99227.58;2281617;78;20938;-80
2021/06/06 03:26:38;;;;;;;15.15;13.55;;;;;;;11.08;73.41;99224.61;2281509;78;21017;-81
2021/06/06 03:29:38;;;;;;;16.13;14.47;;;;;;;11.16;73.45;99231.72;2281445;78;20930;-81
2021/06/06 03:32:39;;;;;;;16.95;14.40;;;;;;;11.24;73.35;99229.22;2281490;78;20950;-80
2021/06/06 03:35:40;;;;;;;17.60;15.63;;;;;;;11.27;73.28;99222.77;2281501;78;20938;-81
2021/06/06 03:38:41;;;;;;;21.15;15.48;;;;;;;11.29;73.25;99227.59;2281614;78;20970;-80
2021/06/06 03:41:42;;;;;;;17.87;16.10;;;;;;;11.39;73.32;99222.95;2281592;78;20958;-80
2021/06/06 03:44:45;;;;;;;20.65;16.20;;;;;;;11.48;73.29;99213.93;2260225;78;21005;-80
2021/06/06 03:47:46;;;;;;;20.75;16.97;;;;;;;11.55;73.13;99216.63;2281583;78;20946;-80
2021/06/06 03:50:51;;;;;;;18.92;16.67;;;;;;;11.62;73.13;99214.12;2266938;77;21041;-80
2021/06/06 03:53:49;;;;;;;17.82;16.07;;;;;;;11.73;73.25;99215.56;2248728;79;20996;-80
2021/06/06 03:56:50;;;;;;;18.35;15.55;;;;;;;11.88;73.33;99213.18;2249291;79;20928;-80
2021/06/06 03:59:51;;;;;;;16.67;14.63;;;;;;;12.10;73.32;99219.55;2249391;79;21047;-81
2021/06/06 04:02:52;;;;;;;18.20;16.42;;;;;;;12.31;73.27;99213.70;2249177;79;20971;-80
2021/06/06 04:05:53;;;;;;;15.32;13.90;;;;;;;12.58;73.56;99217.91;2248981;79;21043;-80
2021/06/06 04:08:54;;;;;;;18.37;16.55;;;;;;;12.88;73.10;99212.07;2249178;79;20984;-81
2021/06/06 04:11:57;;;;;;;16.55;14.85;;;;;;;13.18;73.35;99211.50;2249560;79;20944;-81
2021/06/06 04:14:58;;;;;;;17.20;15.50;;;;;;;13.48;73.06;99213.88;2249180;79;20908;-80
2021/06/06 04:17:58;;;;;;;21.90;17.45;;;;;;;13.75;72.79;99215.34;2249184;79;20979;-80
2021/06/06 04:20:59;;;;;;;19.12;15.45;;;;;;;14.02;72.56;99210.25;2249070;79;20982;-81
2021/06/06 04:24:00;;;;;;;19.00;17.12;;;;;;;14.30;72.22;99215.59;2249616;79;20987;-80
2021/06/06 04:27:01;;;;;;;17.30;15.70;;;;;;;14.50;71.99;99215.23;2249391;79;20936;-81
2021/06/06 04:30:04;;;;;;;19.40;17.55;;;;;;;14.74;71.41;99216.14;2249355;79;20927;-80
2021/06/06 04:33:08;;;;;;;20.55;17.75;;;;;;;14.95;71.18;99219.69;2249178;79;20980;-80
2021/06/06 04:36:07;;;;;;;18.02;16.23;;;;;;;15.17;70.75;99217.93;2248921;79;21063;-81
2021/06/06 04:39:08;;;;;;;19.27;16.50;;;;;;;15.39;70.45;99220.53;2249237;79;21054;-81
2021/06/06 04:42:09;;;;;;;18.12;16.32;;;;;;;15.53;69.98;99222.70;2249130;79;21382;-81
2021/06/06 04:45:10;;;;;;;18.20;16.50;;;;;;;15.70;69.83;99218.34;2249038;79;20983;-80
2021/06/06 04:48:11;;;;;;;18.40;16.42;;;;;;;15.99;69.50;99219.55;2249335;79;20956;-81
2021/06/06 04:51:12;;;;;;;20.92;16.73;;;;;;;16.28;69.42;99215.47;2269445;77;21012;-80
2021/06/06 04:54:13;;;;;;;17.12;15.70;;;;;;;16.48;69.89;99212.31;2291095;78;20980;-80
2021/06/06 04:57:14;;;;;;;16.17;14.33;;;;;;;17.66;69.29;99215.34;2291546;78;20916;-80
2021/06/06 05:00:15;;;;;;;14.87;13.40;;;;;;;18.79;67.18;99222.77;2292181;78;20943;-81
2021/06/06 05:03:16;;;;;;;17.07;15.45;;;;;;;19.40;65.81;99220.45;2291424;78;20972;-81
2021/06/06 05:06:17;;;;;;;16.67;15.18;;;;;;;19.60;62.83;99216.16;2291156;78;20984;-78
2021/06/06 05:09:18;;;;;;;16.73;15.00;;;;;;;19.21;62.15;99223.00;2291394;78;20951;-79
2021/06/06 05:12:19;;;;;;;18.87;14.43;;;;;;;18.89;61.96;99221.72;2291359;78;21117;-79
2021/06/06 05:15:20;;;;;;;16.87;14.53;;;;;;;18.61;62.19;99225.23;2291156;78;20952;-79
2021/06/06 05:18:22;;;;;;;19.60;14.15;;;;;;;18.41;62.76;99227.25;2291329;78;20963;-79
2021/06/06 05:21:23;;;;;;;15.18;13.68;;;;;;;18.28;63.33;99227.86;2291250;78;20983;-80
2021/06/06 05:24:24;;;;;;;14.70;12.90;;;;;;;18.36;63.42;99224.67;2291214;78;20940;-81
2021/06/06 05:27:25;;;;;;;14.78;13.28;;;;;;;18.42;63.27;99227.23;2291176;78;21031;-79
2021/06/06 05:30:26;;;;;;;13.48;12.20;;;;;;;18.49;63.54;99234.62;2291202;78;20908;-79
2021/06/06 05:33:27;;;;;;;14.87;13.00;;;;;;;18.67;63.66;99236.17;2291434;78;21375;-80
2021/06/06 05:36:27;;;;;;;13.20;11.88;;;;;;;18.81;63.23;99237.28;2291040;78;20979;-79
2021/06/06 05:39:28;;;;;;;14.33;12.65;;;;;;;18.92;63.11;99232.25;2291095;78;21035;-79
2021/06/06 05:42:29;;;;;;;13.60;12.37;;;;;;;19.14;62.83;99231.94;2291089;78;20920;-79
2021/06/06 05:45:31;;;;;;;12.70;11.40;;;;;;;19.23;62.53;99241.92;2290947;78;21003;-79
2021/06/06 05:48:33;;;;;;;12.82;11.53;;;;;;;19.36;62.55;99243.46;2290863;77;20952;-80
2021/06/06 05:51:34;;;;;;;13.18;11.22;;;;;;;19.45;61.86;99243.75;2285944;78;21016;-80
2021/06/06 05:54:35;;;;;;;11.63;10.48;;;;;;;19.56;61.83;99244.47;2281351;78;20906;-79
2021/06/06 05:57:36;;;;;;;11.97;10.23;;;;;;;19.80;60.74;99244.91;2281353;78;20981;-79
2021/06/06 06:00:37;;;;;;;14.25;9.43;;;;;;;19.85;60.56;99235.10;2280019;78;20958;-79
2021/06/06 06:03:38;;;;;;;11.70;9.48;;;;;;;20.00;59.82;99241.45;2280045;77;21005;-79
2021/06/06 06:06:39;;;;;;;11.10;8.78;;;;;;;20.19;59.62;99237.98;2280560;77;20969;-81
2021/06/06 06:09:40;;;;;;;10.82;9.13;;;;;;;20.47;59.17;99238.30;2280399;78;20977;-78
2021/06/06 06:12:41;;;;;;;9.35;8.48;;;;;;;20.72;58.37;99233.31;2280297;77;20981;-79
2021/06/06 06:15:41;;;;;;;10.63;8.48;;;;;;;20.84;57.46;99239.24;2281089;78;20953;-77
2021/06/06 06:18:42;;;;;;;9.28;7.70;;;;;;;20.92;55.09;99241.72;2281051;78;20978;-80
2021/06/06 06:21:43;;;;;;;11.60;7.45;;;;;;;20.99;55.57;99240.66;2281322;77;20993;-80
2021/06/06 06:24:44;;;;;;;9.80;6.97;;;;;;;21.14;55.31;99239.42;2281126;78;20930;-79
2021/06/06 06:27:45;;;;;;;7.42;6.17;;;;;;;21.22;53.03;99234.79;2281381;78;20930;-79
2021/06/06 06:30:46;;;;;;;9.90;7.35;;;;;;;21.33;53.84;99241.19;2281385;78;20926;-79
2021/06/06 06:33:47;;;;;;;7.72;6.37;;;;;;;21.45;53.09;99239.55;2281020;78;20957;-79
2021/06/06 06:36:48;;;;;;;7.87;6.37;;;;;;;21.49;52.24;99238.10;2281061;78;20930;-79
2021/06/06 06:39:50;;;;;;;9.63;7.17;;;;;;;21.55;52.29;99240.59;2281212;77;21049;-79
2021/06/06 06:42:51;;;;;;;10.13;6.58;;;;;;;21.69;52.72;99235.41;2281480;77;20926;-79
2021/06/06 06:45:53;;;;;;;6.75;6.15;;;;;;;21.92;52.28;99235.65;2281112;77;20977;-80
2021/06/06 06:48:54;;;;;;;8.73;5.80;;;;;;;22.06;51.80;99236.16;2281285;77;21045;-79
2021/06/06 06:51:55;;;;;;;8.78;6.78;;;;;;;22.21;51.88;99237.05;2281011;77;21365;-79
2021/06/06 06:54:56;;;;;;;6.40;5.75;;;;;;;22.38;51.26;99235.69;2281150;78;21317;-79
2021/06/06 06:57:57;;;;;;;7.40;5.70;;;;;;;22.55;50.42;99230.77;2280958;78;21326;-80
2021/06/06 07:00:59;;;;;;;6.08;5.28;;;;;;;22.57;49.07;99227.59;2281054;77;21330;-79
2021/06/06 07:04:00;;;;;;;6.25;5.72;;;;;;;22.67;49.08;99232.17;2280837;77;20997;-79
2021/06/06 07:07:01;;;;;;;5.85;5.25;;;;;;;22.93;49.81;99234.92;2280920;78;20950;-79
2021/06/06 07:10:03;;;;;;;6.35;5.28;;;;;;;23.19;48.69;99232.73;2281043;77;20954;-78
2021/06/06 07:13:04;;;;;;;8.85;5.20;;;;;;;23.35;48.11;99232.63;2281096;78;21355;-79
2021/06/06 07:16:05;;;;;;;7.40;5.47;;;;;;;23.43;47.40;99226.62;2280872;77;21370;-78
2021/06/06 07:19:06;;;;;;;6.72;5.55;;;;;;;23.47;46.49;99232.25;2281075;78;20966;-79
2021/06/06 07:22:07;;;;;;;5.75;5.17;;;;;;;23.60;47.57;99230.52;2280712;77;20997;-77
2021/06/06 07:25:08;;;;;;;6.97;5.22;;;;;;;23.87;46.74;99220.67;2280599;78;20954;-78
2021/06/06 07:28:09;;;;;;;5.47;4.92;;;;;;;23.91;45.41;99222.31;2280789;77;20926;-78
2021/06/06 07:31:09;;;;;;;6.10;5.05;;;;;;;23.78;45.39;99220.09;2280739;78;20910;-78
2021/06/06 07:34:10;;;;;;;5.83;5.20;;;;;;;23.77;45.67;99221.01;2280946;77;20934;-79
2021/06/06 07:37:11;;;;;;;7.85;5.65;;;;;;;23.80;45.74;99223.56;2280926;78;20977;-79
2021/06/06 07:40:12;;;;;;;5.33;4.83;;;;;;;23.89;45.70;99221.03;2281014;78;20958;-78
2021/06/06 07:43:13;;;;;;;13.70;4.30;;;;;;;24.06;45.62;99220.41;2280705;77;20950;-79
2021/06/06 07:46:15;;;;;;;5.25;4.55;;;;;;;24.12;43.48;99217.52;2280942;78;20946;-80
2021/06/06 07:49:16;;;;;;;7.05;4.40;;;;;;;24.09;42.96;99217.17;2281126;78;21002;-79
2021/06/06 07:52:17;;;;;;;5.65;4.40;;;;;;;24.15;41.39;99229.41;2286427;77;20999;-79
2021/06/06 07:55:18;;;;;;;6.40;4.85;;;;;;;24.16;42.80;99220.48;2290762;78;20960;-79
2021/06/06 07:58:19;;;;;;;6.62;4.17;;;;;;;24.35;43.53;99223.39;2290623;78;21002;-79
2021/06/06 08:01:20;;;;;;;4.53;4.15;;;;;;;24.49;42.12;99225.53;2291068;78;21379;-79
2021/06/06 08:04:22;;;;;;;9.65;4.62;;;;;;;23.99;42.60;99233.10;2290684;78;20984;-79
2021/06/06 08:07:28;;;;;;;5.95;4.10;;;;;;;23.96;43.10;99234.55;2290770;78;20948;-78
2021/06/06 08:10:25;;;;;;;4.70;4.33;;;;;;;24.20;41.98;99226.11;2290523;77;20999;-79
2021/06/06 08:13:26;;;;;;;6.22;4.22;;;;;;;24.24;41.74;99226.86;2290859;78;20912;-78
2021/06/06 08:16:27;;;;;;;4.40;4.00;;;;;;;24.49;42.29;99234.87;2290615;78;20936;-79
2021/06/06 08:19:28;;;;;;;5.17;4.37;;;;;;;24.68;42.01;99227.89;2290777;78;21033;-79
2021/06/06 08:22:29;;;;;;;4.80;4.30;;;;;;;25.05;41.50;99227.31;2290444;78;20998;-78
2021/06/06 08:25:30;;;;;;;4.92;3.25;;;;;;;25.32;40.19;99230.20;2290589;78;20992;-78
2021/06/06 08:28:31;;;;;;;5.53;4.08;;;;;;;25.27;39.08;99234.88;2291229;78;20905;-79
2021/06/06 08:31:32;;;;;;;6.80;3.70;;;;;;;25.13;38.55;99225.19;2291225;78;20967;-79
2021/06/06 08:34:34;;;;;;;3.77;3.45;;;;;;;24.68;39.21;99242.10;2131639;78;21110;-79
2021/06/06 08:37:35;;;;;;;3.92;2.95;;;;;;;24.62;38.68;99235.67;2134738;83;20996;-79
2021/06/06 08:40:36;;;;;;;4.47;3.27;;;;;;;25.18;37.85;99232.58;2134877;83;21044;-78
2021/06/06 08:43:37;;;;;;;5.03;3.25;;;;;;;25.04;38.48;99238.46;2134918;83;21075;-78
2021/06/06 08:46:38;;;;;;;5.22;3.05;;;;;;;24.77;38.32;99233.73;2135036;83;20984;-79
2021/06/06 08:49:39;;;;;;;5.97;3.35;;;;;;;24.50;38.65;99238.81;2135146;83;20956;-78
2021/06/06 08:52:41;;;;;;;6.40;3.42;;;;;;;24.24;38.80;99238.86;2135070;83;21063;-79
2021/06/06 08:55:41;;;;;;;3.98;3.08;;;;;;;24.23;38.55;99232.66;2135077;83;20948;-81
2021/06/06 08:58:43;;;;;;;7.55;3.70;;;;;;;24.51;39.07;99237.02;2135456;83;21067;-78
2021/06/06 09:01:47;;;;;;;4.25;3.05;;;;;;;24.71;39.17;99227.30;2135017;83;21067;-79
2021/06/06 09:04:48;;;;;;;3.87;3.40;;;;;;;25.26;38.89;99223.78;2135048;83;21020;-79
2021/06/06 09:07:49;;;;;;;5.92;3.15;;;;;;;25.11;37.65;99218.17;2134925;83;20975;-79
2021/06/06 09:10:53;;;;;;;4.55;2.87;;;;;;;25.26;37.21;99215.77;2134836;83;20951;-78
2021/06/06 09:13:53;;;;;;;4.25;3.30;;;;;;;25.19;36.86;99215.63;2134834;82;21452;-78
2021/06/06 09:16:54;;;;;;;6.28;2.92;;;;;;;25.17;36.45;99217.48;2134914;83;21391;-78
2021/06/06 09:19:56;;;;;;;7.15;3.40;;;;;;;25.56;36.55;99211.39;2134507;83;21051;-79
2021/06/06 09:22:57;;;;;;;3.50;3.22;;;;;;;25.85;35.06;99209.67;2134905;83;21327;-78
2021/06/06 09:25:58;;;;;;;6.20;3.65;;;;;;;26.25;35.39;99210.11;2134927;83;21352;-79
2021/06/06 09:28:59;;;;;;;3.35;3.05;;;;;;;26.47;33.95;99211.34;2135296;83;20944;-78
2021/06/06 09:32:00;;;;;;;3.60;3.30;;;;;;;26.03;35.24;99208.88;2134900;82;21031;-79
2021/06/06 09:35:01;;;;;;;3.40;3.20;;;;;;;26.11;35.67;99213.02;2168834;82;20999;-78
2021/06/06 09:38:02;;;;;;;4.10;3.60;;;;;;;26.58;34.46;99212.17;2168696;82;21015;-78
2021/06/06 09:41:03;;;;;;;4.40;3.45;;;;;;;26.98;33.22;99212.52;2168805;82;20995;-78
2021/06/06 09:44:04;;;;;;;3.62;3.33;;;;;;;27.06;33.81;99203.63;2168955;82;20940;-79
2021/06/06 09:47:05;;;;;;;8.53;3.60;;;;;;;27.47;33.03;99195.31;2168983;82;21418;-78
2021/06/06 09:50:06;;;;;;;4.67;3.20;;;;;;;27.37;32.46;99206.98;2168803;82;20968;-78
2021/06/06 09:53:07;;;;;;;5.05;3.00;;;;;;;26.61;32.44;99199.98;2168928;82;20980;-78
2021/06/06 09:56:08;;;;;;;5.20;2.90;;;;;;;26.03;34.45;99199.52;2168675;82;21007;-80
2021/06/06 09:59:09;;;;;;;5.45;3.30;;;;;;;25.90;34.75;99202.78;2168680;82;20983;-79
2021/06/06 10:02:10;;;;;;;6.58;3.30;;;;;;;25.97;34.93;99197.09;2168658;80;21074;-78
2021/06/06 10:05:12;;;;;;;4.83;2.90;;;;;;;26.10;33.61;99192.55;2168596;82;21036;-79
2021/06/06 10:08:12;;;;;;;5.33;2.95;;;;;;;26.34;32.35;99189.64;2168989;82;21304;-79
2021/06/06 10:11:13;;;;;;;4.08;3.27;;;;;;;26.12;33.52;99192.02;2169022;82;21328;-80
2021/06/06 10:14:14;;;;;;;6.03;3.10;;;;;;;25.93;34.24;99198.16;2168900;82;20979;-80
2021/06/06 10:17:15;;;;;;;5.20;2.90;;;;;;;25.73;34.18;99190.16;2169078;82;21004;-79
2021/06/06 10:20:16;;;;;;;6.20;3.17;;;;;;;25.68;33.87;99194.38;2169017;82;20956;-80
2021/06/06 10:23:17;;;;;;;5.30;2.98;;;;;;;25.96;33.69;99186.46;2168782;82;21079;-79
2021/06/06 10:26:18;;;;;;;5.90;3.10;;;;;;;26.34;33.16;99188.77;2168948;82;20956;-80
2021/06/06 10:29:19;;;;;;;5.35;3.05;;;;;;;26.59;32.52;99195.17;2168966;82;20956;-79
2021/06/06 10:32:20;;;;;;;3.90;2.70;;;;;;;26.86;32.31;99188.95;2168699;80;21062;-79
2021/06/06 10:35:21;;;;;;;5.20;2.92;;;;;;;27.18;31.28;99182.92;2192130;81;20931;-79
2021/06/06 10:38:22;;;;;;;3.17;2.90;;;;;;;27.48;30.34;99193.02;2192236;81;21011;-80
2021/06/06 10:41:23;;;;;;;2.90;2.65;;;;;;;27.28;30.68;99192.70;2192093;81;21411;-80
2021/06/06 10:44:24;;;;;;;2.98;2.60;;;;;;;27.39;31.08;99185.45;2192333;81;21168;-79
2021/06/06 10:47:25;;;;;;;5.58;2.37;;;;;;;27.74;29.69;99181.84;2192394;81;20994;-80
2021/06/06 10:50:26;;;;;;;2.62;2.42;;;;;;;28.04;29.04;99173.13;2192334;81;20947;-82
2021/06/06 10:53:27;;;;;;;2.90;2.60;;;;;;;28.37;29.08;99178.50;2192340;81;20968;-81
2021/06/06 10:56:27;;;;;;;2.70;2.50;;;;;;;28.31;28.97;99173.47;2192478;81;20963;-79
2021/06/06 10:59:28;;;;;;;4.97;2.87;;;;;;;28.29;29.01;99170.87;2191591;81;21414;-78
2021/06/06 11:02:30;;;;;;;4.03;2.60;;;;;;;28.67;28.57;99171.91;2191926;81;21087;-80
2021/06/06 11:05:31;;;;;;;3.33;2.40;;;;;;;28.56;27.45;99173.84;2192211;81;20991;-79
2021/06/06 11:08:33;;;;;;;2.50;2.30;;;;;;;28.59;27.07;99159.36;2191978;81;20987;-78
2021/06/06 11:11:34;;;;;;;6.50;2.47;;;;;;;28.68;27.75;99162.91;2192075;81;21351;-79
2021/06/06 11:14:35;;;;;;;4.28;2.60;;;;;;;28.79;28.57;99155.09;2192042;81;20951;-80
2021/06/06 11:17:36;;;;;;;5.53;2.77;;;;;;;28.83;26.61;99151.28;2192045;81;21375;-81
2021/06/06 11:20:37;;;;;;;3.12;2.45;;;;;;;28.73;27.76;99154.11;2192107;81;20974;-79
2021/06/06 11:23:38;;;;;;;5.33;2.55;;;;;;;28.77;27.49;99154.32;2191688;81;21007;-80
2021/06/06 11:26:39;;;;;;;2.40;2.20;;;;;;;28.74;27.13;99159.39;2192011;81;20963;-79
2021/06/06 11:29:40;;;;;;;2.70;2.50;;;;;;;28.44;26.48;99164.65;2191824;81;21007;-79
2021/06/06 11:32:41;;;;;;;3.17;2.47;;;;;;;28.34;25.89;99159.88;2191694;80;21032;-79
2021/06/06 11:35:42;;;;;;;3.62;2.50;;;;;;;28.33;26.53;99156.80;2191799;81;21400;-79
2021/06/06 11:38:43;;;;;;;2.87;2.40;;;;;;;27.95;26.80;99150.83;2191812;81;20991;-79
2021/06/06 11:41:44;;;;;;;6.60;2.80;;;;;;;27.61;27.34;99151.25;2191074;81;21054;-80
2021/06/06 11:44:45;;;;;;;3.35;2.33;;;;;;;27.47;27.70;99151.94;2191173;81;20998;-79
2021/06/06 11:47:46;;;;;;;4.22;2.50;;;;;;;27.68;28.60;99138.39;2192067;81;20999;-79
2021/06/06 11:50:47;;;;;;;3.42;2.22;;;;;;;28.00;28.49;99135.34;2192273;81;20978;-79
2021/06/06 11:53:48;;;;;;;5.87;2.60;;;;;;;28.39;27.48;99140.35;2192472;81;20988;-80
2021/06/06 11:56:48;;;;;;;2.80;2.60;;;;;;;28.54;27.28;99137.67;2192264;81;21022;-79
2021/06/06 11:59:49;;;;;;;3.15;2.50;;;;;;;28.60;26.32;99133.77;2192319;81;21310;-81
2021/06/06 12:02:51;;;;;;;2.65;2.40;;;;;;;28.61;27.60;99119.42;2191950;81;21061;-80
2021/06/06 12:05:52;;;;;;;2.55;2.35;;;;;;;29.07;26.67;99116.77;2192385;81;21043;-80
2021/06/06 12:08:53;;;;;;;2.72;2.50;;;;;;;29.24;26.96;99109.91;2192437;81;20951;-81
2021/06/06 12:11:54;;;;;;;3.40;2.75;;;;;;;29.31;27.27;99111.73;2192243;81;21021;-79
2021/06/06 12:14:54;;;;;;;4.20;2.60;;;;;;;28.92;26.74;99107.79;2192219;81;20952;-81
2021/06/06 12:17:55;;;;;;;4.05;2.27;;;;;;;28.55;26.94;99104.48;2192103;81;20955;-79
2021/06/06 12:20:58;;;;;;;3.77;2.40;;;;;;;28.55;26.05;99104.97;2191884;81;21007;-80
2021/06/06 12:23:59;;;;;;;4.28;2.47;;;;;;;28.62;25.50;99102.83;2192239;81;21008;-79
2021/06/06 12:27:00;;;;;;;5.50;2.45;;;;;;;28.48;25.76;99100.42;2192145;81;20912;-80
2021/06/06 12:30:01;;;;;;;3.30;2.33;;;;;;;28.64;25.81;99100.44;2192081;81;20984;-81
2021/06/06 12:33:01;;;;;;;4.83;2.10;;;;;;;29.05;26.24;99094.02;2191300;80;21026;-79
2021/06/06 12:36:03;;;;;;;3.20;2.15;;;;;;;29.58;25.30;99095.33;2169301;82;21004;-79
2021/06/06 12:39:03;;;;;;;3.50;2.40;;;;;;;29.97;24.28;99091.96;2169006;82;21004;-79
2021/06/06 12:42:05;;;;;;;2.62;2.10;;;;;;;29.76;23.75;99095.53;2169038;82;21100;-80
2021/06/06 12:45:05;;;;;;;2.77;2.20;;;;;;;29.76;23.88;99087.45;2169086;82;21004;-79
2021/06/06 12:48:06;;;;;;;3.65;2.40;;;;;;;30.00;23.96;99088.21;2169203;82;20939;-80
2021/06/06 12:51:07;;;;;;;2.70;2.20;;;;;;;30.15;23.82;99080.53;2168763;82;21020;-80
2021/06/06 12:54:09;;;;;;;3.20;2.30;;;;;;;30.15;23.53;99080.53;2168498;82;20998;-79
2021/06/06 12:57:10;;;;;;;5.12;2.20;;;;;;;30.06;24.12;99085.16;2167862;82;21038;-79
2021/06/06 13:00:12;;;;;;;3.15;2.15;;;;;;;29.79;24.32;99084.57;2168242;82;20983;-79
2021/06/06 13:03:13;;;;;;;2.67;2.47;;;;;;;29.79;24.37;99085.05;2168618;82;21447;-80
2021/06/06 13:06:14;;;;;;;2.52;2.30;;;;;;;29.42;25.29;99083.72;2168469;82;21059;-79
2021/06/06 13:09:15;;;;;;;3.00;2.50;;;;;;;28.88;26.16;99087.91;2168646;82;20956;-80
2021/06/06 13:12:16;;;;;;;5.67;2.05;;;;;;;28.87;26.40;99080.80;2168758;82;21121;-82
2021/06/06 13:15:18;;;;;;;5.25;2.50;;;;;;;29.05;26.95;99081.92;2169296;82;20940;-80
2021/06/06 13:18:19;;;;;;;4.78;2.33;;;;;;;28.70;26.51;99085.79;2168977;82;20999;-79
2021/06/06 13:21:20;;;;;;;3.98;2.62;;;;;;;28.48;26.44;99081.63;2168952;82;21004;-79
2021/06/06 13:24:21;;;;;;;5.30;2.70;;;;;;;28.48;26.14;99081.63;2169644;82;20968;-78
2021/06/06 13:27:22;;;;;;;6.60;2.75;;;;;;;28.33;25.99;99085.19;2168729;82;20937;-80
2021/06/06 13:30:24;;;;;;;2.72;2.30;;;;;;;28.67;25.85;99080.59;2169033;82;21051;-79
2021/06/06 13:33:25;;;;;;;4.67;2.58;;;;;;;28.94;24.79;99080.35;2170101;80;21430;-81
2021/06/06 13:36:26;;;;;;;4.10;2.30;;;;;;;29.37;25.05;99071.04;2192159;81;20927;-80
2021/06/06 13:39:27;;;;;;;4.03;2.40;;;;;;;29.37;25.20;99074.59;2191847;81;21379;-80
2021/06/06 13:42:28;;;;;;;3.05;2.30;;;;;;;29.35;25.27;99071.61;2191973;81;21468;-80
2021/06/06 13:45:28;;;;;;;5.25;2.60;;;;;;;29.12;25.58;99073.88;2191966;81;21360;-80
2021/06/06 13:48:30;;;;;;;3.67;2.50;;;;;;;29.26;25.73;99076.20;2191900;81;20919;-79
2021/06/06 13:51:31;;;;;;;4.30;2.30;;;;;;;29.06;25.56;99076.93;2191892;81;21010;-80
2021/06/06 13:54:33;;;;;;;6.47;2.70;;;;;;;28.93;26.78;99079.97;2191909;81;21015;-79
2021/06/06 13:57:35;;;;;;;;;;;;;;;28.97;26.14;99076.14;2194880;81;21024;-81
2021/06/06 14:00:37;;;;;;;4.03;2.27;;;;;;;28.86;25.33;99071.87;2192005;81;20102;-80
2021/06/06 14:03:38;;;;;;;5.37;2.50;;;;;;;29.10;25.35;99064.17;2191963;78;21074;-80